createdAt,value
2018-08-20T00:00:48.102Z,8.40
2018-08-20T00:03:22.636Z,7.33
2018-08-20T00:05:57.496Z,9.97
2018-08-20T00:08:42.517Z,7.00
2018-08-20T00:11:20.065Z,7.43
2018-08-20T00:13:56.663Z,7.17
2018-08-20T00:16:31.482Z,7.60
2018-08-20T00:19:06.380Z,7.33
2018-08-20T00:21:44.444Z,8.30
2018-08-20T00:24:19.523Z,8.10
2018-08-20T00:26:54.541Z,8.13
2018-08-20T00:29:30.104Z,7.70
2018-08-20T00:32:05.332Z,7.27
2018-08-20T00:34:42.449Z,8.67
2018-08-20T00:37:17.085Z,7.73
2018-08-20T00:39:51.824Z,7.40
2018-08-20T00:42:26.393Z,7.57
2018-08-20T00:45:00.844Z,7.30
2018-08-20T00:47:35.613Z,8.63
2018-08-20T00:50:10.623Z,8.23
2018-08-20T00:52:45.100Z,8.40
2018-08-20T00:55:20.321Z,7.73
2018-08-20T00:57:55.860Z,8.70
2018-08-20T01:00:30.281Z,7.50
2018-08-20T01:03:05.176Z,7.60
2018-08-20T01:05:39.605Z,8.60
2018-08-20T01:08:14.284Z,8.67
2018-08-20T01:10:49.849Z,8.37
2018-08-20T01:13:24.768Z,7.90
2018-08-20T01:15:59.376Z,8.00
2018-08-20T01:18:34.457Z,8.07
2018-08-20T01:21:08.840Z,8.57
2018-08-20T01:23:44.378Z,8.37
2018-08-20T01:26:19.337Z,8.27
2018-08-20T01:28:53.837Z,8.20
2018-08-20T01:31:28.368Z,8.77
2018-08-20T01:34:02.960Z,8.70
2018-08-20T01:36:37.412Z,7.97
2018-08-20T01:39:11.944Z,8.60
2018-08-20T01:41:46.241Z,8.50
2018-08-20T01:44:20.693Z,9.70
2018-08-20T01:46:55.747Z,8.50
2018-08-20T01:49:30.016Z,8.50
2018-08-20T01:52:05.621Z,8.87
2018-08-20T01:54:40.465Z,8.50
2018-08-20T01:57:14.900Z,7.90
2018-08-20T01:59:49.436Z,8.53
2018-08-20T02:02:24.712Z,8.67
2018-08-20T02:04:59.773Z,8.80
2018-08-20T02:07:34.471Z,8.27
2018-08-20T02:10:08.960Z,11.03
2018-08-20T02:12:43.660Z,8.93
2018-08-20T02:15:18.087Z,8.63
2018-08-20T02:17:52.838Z,8.67
2018-08-20T02:20:27.432Z,8.03
2018-08-20T02:23:02.843Z,7.90
2018-08-20T02:25:37.227Z,8.73
2018-08-20T02:28:12.413Z,8.27
2018-08-20T02:30:46.960Z,9.07
2018-08-20T02:33:21.401Z,8.40
2018-08-20T02:35:55.876Z,8.70
2018-08-20T02:38:30.650Z,8.90
2018-08-20T02:41:05.560Z,9.00
2018-08-20T02:43:40.369Z,9.83
2018-08-20T02:46:14.751Z,10.70
2018-08-20T02:48:50.584Z,11.30
2018-08-20T02:51:24.988Z,11.60
2018-08-20T02:54:00.013Z,11.20
2018-08-20T02:56:34.880Z,9.87
2018-08-20T02:59:09.275Z,9.70
2018-08-20T03:01:43.712Z,9.20
2018-08-20T03:04:18.186Z,9.30
2018-08-20T03:06:53.496Z,9.83
2018-08-20T03:09:28.547Z,9.30
2018-08-20T03:12:02.816Z,9.57
2018-08-20T03:14:37.413Z,10.10
2018-08-20T03:17:12.412Z,8.83
2018-08-20T03:19:47.309Z,9.17
2018-08-20T03:22:22.157Z,8.97
2018-08-20T03:24:56.514Z,8.77
2018-08-20T03:27:31.493Z,9.40
2018-08-20T03:30:06.934Z,8.93
2018-08-20T03:32:41.608Z,9.63
2018-08-20T03:35:16.444Z,9.63
2018-08-20T03:37:50.908Z,9.77
2018-08-20T03:40:25.380Z,9.43
2018-08-20T03:43:00.053Z,8.80
2018-08-20T03:45:34.728Z,8.97
2018-08-20T03:48:09.692Z,9.87
2018-08-20T03:50:44.040Z,9.63
2018-08-20T03:53:18.727Z,9.50
2018-08-20T03:55:53.181Z,9.83
2018-08-20T03:58:27.737Z,9.23
2018-08-20T04:01:02.789Z,9.10
2018-08-20T04:03:37.426Z,9.07
2018-08-20T04:06:11.979Z,10.00
2018-08-20T04:08:46.436Z,9.00
2018-08-20T04:11:20.984Z,9.90
2018-08-20T04:13:55.488Z,9.20
2018-08-20T04:16:29.935Z,9.50
2018-08-20T04:19:07.115Z,9.83
2018-08-20T04:21:41.517Z,8.93
2018-08-20T04:24:15.810Z,9.97
2018-08-20T04:26:51.311Z,9.40
2018-08-20T04:29:25.613Z,9.60
2018-08-20T04:32:00.613Z,9.70
2018-08-20T04:34:35.492Z,9.13
2018-08-20T04:37:10.820Z,9.33
2018-08-20T04:39:45.416Z,9.40
2018-08-20T04:42:20.284Z,10.10
2018-08-20T04:44:55.410Z,10.07
2018-08-20T04:47:29.913Z,11.97
2018-08-20T04:50:06.390Z,11.23
2018-08-20T04:52:41.552Z,10.83
2018-08-20T04:55:16.147Z,11.10
2018-08-20T04:57:51.257Z,10.27
2018-08-20T05:00:25.845Z,9.60
2018-08-20T05:03:00.660Z,9.60
2018-08-20T05:05:35.166Z,9.27
2018-08-20T05:08:09.772Z,9.80
2018-08-20T05:10:44.637Z,9.77
2018-08-20T05:13:19.193Z,9.50
2018-08-20T05:15:53.732Z,9.97
2018-08-20T05:18:28.728Z,11.00
2018-08-20T05:21:03.452Z,10.00
2018-08-20T05:23:37.976Z,10.00
2018-08-20T05:29:28.676Z,10.23
2018-08-20T05:32:05.453Z,9.90
2018-08-20T05:34:40.216Z,9.90
2018-08-20T05:37:14.890Z,9.70
2018-08-20T05:39:49.313Z,9.80
2018-08-20T05:42:23.764Z,9.83
2018-08-20T05:44:58.685Z,9.80
2018-08-20T05:47:33.176Z,11.93
2018-08-20T05:50:08.300Z,10.10
2018-08-20T05:52:47.390Z,10.10
2018-08-20T05:55:24.208Z,10.23
2018-08-20T05:57:58.700Z,9.70
2018-08-20T06:00:33.204Z,9.07
2018-08-20T06:03:07.619Z,9.87
2018-08-20T06:05:42.469Z,9.77
2018-08-20T06:08:17.088Z,10.60
2018-08-20T06:10:51.783Z,9.57
2018-08-20T06:13:26.529Z,13.10
2018-08-20T06:16:03.104Z,10.57
2018-08-20T06:18:37.841Z,10.27
2018-08-20T06:21:12.884Z,9.20
2018-08-20T06:23:47.959Z,9.00
2018-08-20T06:26:22.679Z,9.50
2018-08-20T06:28:57.790Z,8.50
2018-08-20T06:31:32.456Z,8.83
2018-08-20T06:34:07.500Z,8.40
2018-08-20T06:36:42.455Z,8.63
2018-08-20T06:39:18.004Z,11.53
2018-08-20T06:41:52.482Z,8.57
2018-08-20T06:44:26.825Z,8.20
2018-08-20T06:47:02.060Z,8.83
2018-08-20T06:49:37.077Z,8.00
2018-08-20T06:52:12.161Z,7.50
2018-08-20T06:54:46.829Z,6.90
2018-08-20T06:57:21.928Z,7.17
2018-08-20T06:59:56.424Z,7.33
2018-08-20T07:02:31.289Z,7.17
2018-08-20T07:05:06.217Z,9.13
2018-08-20T07:07:41.347Z,6.73
2018-08-20T07:10:15.758Z,6.73
2018-08-20T07:12:50.787Z,6.40
2018-08-20T07:15:25.414Z,6.87
2018-08-20T07:18:00.819Z,10.33
2018-08-20T07:20:35.512Z,8.47
2018-08-20T07:23:14.442Z,8.67
2018-08-20T07:25:50.329Z,8.23
2018-08-20T07:28:30.481Z,8.70
2018-08-20T07:31:04.949Z,6.37
2018-08-20T07:33:39.981Z,9.43
2018-08-20T07:36:14.573Z,6.03
2018-08-20T07:38:50.684Z,6.13
2018-08-20T07:41:25.895Z,6.43
2018-08-20T07:44:00.616Z,6.97
2018-08-20T07:46:35.366Z,6.37
2018-08-20T07:49:15.205Z,7.97
2018-08-20T07:51:50.855Z,6.93
2018-08-20T07:54:25.944Z,6.17
2018-08-20T07:57:01.117Z,7.90
2018-08-20T07:59:35.532Z,6.80
2018-08-20T08:02:10.020Z,4.97
2018-08-20T08:04:47.096Z,5.80
2018-08-20T08:07:23.920Z,6.10
2018-08-20T08:09:59.232Z,5.03
2018-08-20T08:12:33.699Z,5.40
2018-08-20T08:15:10.925Z,5.03
2018-08-20T08:17:46.807Z,5.73
2018-08-20T08:20:21.378Z,6.73
2018-08-20T08:22:56.236Z,5.70
2018-08-20T08:25:31.026Z,5.47
2018-08-20T08:28:05.956Z,5.50
2018-08-20T08:30:41.640Z,6.80
2018-08-20T08:33:16.522Z,4.20
2018-08-20T08:35:51.996Z,4.57
2018-08-20T08:38:26.349Z,3.70
2018-08-20T08:41:01.102Z,4.40
2018-08-20T08:43:35.648Z,5.37
2018-08-20T08:46:10.978Z,4.73
2018-08-20T08:48:45.931Z,3.60
2018-08-20T08:51:21.522Z,4.87
2018-08-20T08:53:56.282Z,5.53
2018-08-20T08:56:36.365Z,5.40
2018-08-20T08:59:11.097Z,5.17
2018-08-20T09:01:46.111Z,4.70
2018-08-20T09:04:20.667Z,7.03
2018-08-20T09:06:55.123Z,3.43
2018-08-20T09:09:29.508Z,4.57
2018-08-20T09:12:03.940Z,6.47
2018-08-20T09:14:40.888Z,3.63
2018-08-20T09:17:15.608Z,4.53
2018-08-20T09:19:50.629Z,7.33
2018-08-20T09:22:25.525Z,6.07
2018-08-20T09:25:00.252Z,5.90
2018-08-20T09:27:35.302Z,4.93
2018-08-20T09:30:16.918Z,6.23
2018-08-20T09:32:52.051Z,4.57
2018-08-20T09:35:26.962Z,3.67
2018-08-20T09:38:01.508Z,7.07
2018-08-20T09:40:36.732Z,6.13
2018-08-20T09:43:11.252Z,5.17
2018-08-20T09:45:46.051Z,5.60
2018-08-20T09:48:20.745Z,4.13
2018-08-20T09:50:55.475Z,3.93
2018-08-20T09:53:31.041Z,3.77
2018-08-20T09:56:05.878Z,4.07
2018-08-20T09:58:40.433Z,7.33
2018-08-20T10:01:15.180Z,5.30
2018-08-20T10:03:49.702Z,4.97
2018-08-20T10:06:24.674Z,6.43
2018-08-20T10:08:59.200Z,3.30
2018-08-20T10:11:33.837Z,4.77
2018-08-20T10:14:08.292Z,5.13
2018-08-20T10:16:42.972Z,4.13
2018-08-20T10:19:17.840Z,6.60
2018-08-20T10:21:52.712Z,3.83
2018-08-20T10:24:27.438Z,5.43
2018-08-20T10:27:02.180Z,7.67
2018-08-20T10:29:36.605Z,3.57
2018-08-20T10:32:11.541Z,4.63
2018-08-20T10:34:46.588Z,4.53
2018-08-20T10:37:21.347Z,5.00
2018-08-20T10:39:57.529Z,5.57
2018-08-20T10:42:32.492Z,3.87
2018-08-20T10:45:16.643Z,4.57
2018-08-20T10:47:51.320Z,4.73
2018-08-20T10:50:25.909Z,4.33
2018-08-20T10:53:01.334Z,4.77
2018-08-20T10:55:36.308Z,3.70
2018-08-20T10:58:12.271Z,4.47
2018-08-20T11:00:46.944Z,4.23
2018-08-20T11:03:21.802Z,5.80
2018-08-20T11:05:57.015Z,4.80
2018-08-20T11:08:32.928Z,4.47
2018-08-20T11:11:08.104Z,4.10
2018-08-20T11:13:43.001Z,3.50
2018-08-20T11:16:17.338Z,4.53
2018-08-20T11:18:51.946Z,3.90
2018-08-20T11:21:37.580Z,3.47
2018-08-20T11:24:12.258Z,4.53
2018-08-20T11:26:46.844Z,5.97
2018-08-20T11:29:21.335Z,5.23
2018-08-20T11:31:56.235Z,4.60
2018-08-20T11:34:31.487Z,4.80
2018-08-20T11:37:06.604Z,4.53
2018-08-20T11:39:41.380Z,4.97
2018-08-20T11:42:16.044Z,3.57
2018-08-20T11:44:50.468Z,4.10
2018-08-20T11:47:24.852Z,3.93
2018-08-20T11:50:00.736Z,5.83
2018-08-20T11:52:35.163Z,3.97
2018-08-20T11:55:09.756Z,3.77
2018-08-20T11:57:44.402Z,4.93
2018-08-20T12:00:19.468Z,4.30
2018-08-20T12:02:54.380Z,4.30
2018-08-20T12:05:29.447Z,6.33
2018-08-20T12:08:04.351Z,5.57
2018-08-20T12:10:39.279Z,3.03
2018-08-20T12:13:14.359Z,5.57
2018-08-20T12:15:48.852Z,4.83
2018-08-20T12:18:23.663Z,3.80
2018-08-20T12:20:58.008Z,4.47
2018-08-20T12:23:32.760Z,3.17
2018-08-20T12:26:07.608Z,4.53
2018-08-20T12:28:42.089Z,3.50
2018-08-20T12:31:16.413Z,3.70
2018-08-20T12:33:51.148Z,4.13
2018-08-20T12:36:25.932Z,5.03
2018-08-20T12:39:00.620Z,4.70
2018-08-20T12:41:35.583Z,5.37
2018-08-20T12:44:10.032Z,4.57
2018-08-20T12:46:44.908Z,4.93
2018-08-20T12:49:19.231Z,4.37
2018-08-20T12:51:54.600Z,4.97
2018-08-20T12:54:29.692Z,3.30
2018-08-20T12:57:04.971Z,3.97
2018-08-20T12:59:39.733Z,3.63
2018-08-20T13:02:14.233Z,3.30
2018-08-20T13:04:48.786Z,3.77
2018-08-20T13:07:23.721Z,3.87
2018-08-20T13:09:58.512Z,3.60
2018-08-20T13:12:33.096Z,4.30
2018-08-20T13:15:07.572Z,3.80
2018-08-20T13:17:41.932Z,4.40
2018-08-20T13:23:20.713Z,3.50
2018-08-20T13:25:55.415Z,3.77
2018-08-20T13:28:30.748Z,6.63
2018-08-20T13:31:05.176Z,3.70
2018-08-20T13:33:39.583Z,4.87
2018-08-20T13:36:14.419Z,5.03
2018-08-20T13:38:48.929Z,4.73
2018-08-20T13:41:23.689Z,3.80
2018-08-20T13:43:58.201Z,4.80
2018-08-20T13:46:32.855Z,3.97
2018-08-20T13:49:07.716Z,5.30
2018-08-20T13:51:42.230Z,3.50
2018-08-20T13:54:16.672Z,5.30
2018-08-20T13:56:51.309Z,4.10
2018-08-20T13:59:25.620Z,4.60
2018-08-20T14:02:01.015Z,3.53
2018-08-20T14:04:36.544Z,5.30
2018-08-20T14:07:10.946Z,3.40
2018-08-20T14:09:46.001Z,3.67
2018-08-20T14:12:20.660Z,3.87
2018-08-20T14:14:55.637Z,6.67
2018-08-20T14:17:30.122Z,4.30
2018-08-20T14:20:08.364Z,4.37
2018-08-20T14:22:44.008Z,5.87
2018-08-20T14:25:18.829Z,5.73
2018-08-20T14:27:53.860Z,6.37
2018-08-20T14:30:28.458Z,4.50
2018-08-20T14:33:02.966Z,7.33
2018-08-20T14:35:37.488Z,4.77
2018-08-20T14:38:12.119Z,3.80
2018-08-20T14:40:46.835Z,3.87
2018-08-20T14:43:21.720Z,5.00
2018-08-20T14:46:02.350Z,4.67
2018-08-20T14:48:36.981Z,4.07
2018-08-20T14:51:11.344Z,3.80
2018-08-20T14:53:45.852Z,3.97
2018-08-20T14:56:20.825Z,5.70
2018-08-20T14:58:55.824Z,4.00
2018-08-20T15:01:30.695Z,5.43
2018-08-20T15:04:05.199Z,3.77
2018-08-20T15:06:55.772Z,4.70
2018-08-20T15:09:30.980Z,4.43
2018-08-20T15:12:06.474Z,3.73
2018-08-20T15:14:41.552Z,4.57
2018-08-20T15:17:17.052Z,3.90
2018-08-20T15:19:51.704Z,5.43
2018-08-20T15:22:26.504Z,5.30
2018-08-20T15:25:01.237Z,4.43
2018-08-20T15:27:35.728Z,5.47
2018-08-20T15:30:10.701Z,3.60
2018-08-20T15:32:45.765Z,3.67
2018-08-20T15:35:21.840Z,4.27
2018-08-20T15:37:56.298Z,4.30
2018-08-20T15:40:31.023Z,4.00
2018-08-20T15:43:05.340Z,3.97
2018-08-20T15:45:40.085Z,3.70
2018-08-20T15:48:14.979Z,5.70
2018-08-20T15:50:49.986Z,5.37
2018-08-20T15:53:24.733Z,4.50
2018-08-20T15:55:59.082Z,5.70
2018-08-20T15:58:33.629Z,4.40
2018-08-20T16:01:08.268Z,5.97
2018-08-20T16:03:42.778Z,4.60
2018-08-20T16:06:17.457Z,5.07
2018-08-20T16:08:51.809Z,6.93
2018-08-20T16:11:26.240Z,4.33
2018-08-20T16:14:00.616Z,4.33
2018-08-20T16:16:35.352Z,4.43
2018-08-20T16:19:10.414Z,4.20
2018-08-20T16:21:44.967Z,4.73
2018-08-20T16:24:19.454Z,5.53
2018-08-20T16:26:54.107Z,4.23
2018-08-20T16:29:28.628Z,3.60
2018-08-20T16:32:03.752Z,4.67
2018-08-20T16:34:38.295Z,4.67
2018-08-20T16:37:13.393Z,4.23
2018-08-20T16:39:48.584Z,5.57
2018-08-20T16:42:22.896Z,3.90
2018-08-20T16:44:57.425Z,4.60
2018-08-20T16:47:32.253Z,4.77
2018-08-20T16:50:08.791Z,4.50
2018-08-20T16:52:43.461Z,4.77
2018-08-20T16:55:17.838Z,4.20
2018-08-20T16:57:52.683Z,7.60
2018-08-20T17:00:27.263Z,5.20
2018-08-20T17:03:01.608Z,5.10
2018-08-20T17:05:41.565Z,4.17
2018-08-20T17:08:25.020Z,4.60
2018-08-20T17:11:00.096Z,5.37
2018-08-20T17:13:34.956Z,4.03
2018-08-20T17:16:10.481Z,6.20
2018-08-20T17:18:45.252Z,4.10
2018-08-20T17:21:19.596Z,5.23
2018-08-20T17:23:54.161Z,4.70
2018-08-20T17:26:28.933Z,5.47
2018-08-20T17:29:08.892Z,4.50
2018-08-20T17:31:44.156Z,5.00
2018-08-20T17:34:18.502Z,5.27
2018-08-20T17:36:53.800Z,5.90
2018-08-20T17:39:28.165Z,5.90
2018-08-20T17:42:02.786Z,4.53
2018-08-20T17:44:37.446Z,6.43
2018-08-20T17:47:16.325Z,8.97
2018-08-20T17:49:51.660Z,24.20
2018-08-20T17:52:33.100Z,12.03
2018-08-20T17:55:07.793Z,10.03
2018-08-20T17:57:42.773Z,10.90
2018-08-20T18:00:22.994Z,8.23
2018-08-20T18:02:57.379Z,8.97
2018-08-20T18:05:31.784Z,6.77
2018-08-20T18:08:06.584Z,5.73
2018-08-20T18:10:41.357Z,5.10
2018-08-20T18:13:30.077Z,11.30
2018-08-20T18:16:06.942Z,7.27
2018-08-20T18:18:43.732Z,11.33
2018-08-20T18:21:18.410Z,9.90
2018-08-20T18:23:52.836Z,8.13
2018-08-20T18:26:32.436Z,4.97
2018-08-20T18:29:09.342Z,5.33
2018-08-20T18:31:43.795Z,6.03
2018-08-20T18:34:18.827Z,6.73
2018-08-20T18:36:53.893Z,4.43
2018-08-20T18:39:28.869Z,5.03
2018-08-20T18:42:10.630Z,5.70
2018-08-20T18:44:47.163Z,4.63
2018-08-20T18:47:21.483Z,4.37
2018-08-20T18:49:57.167Z,4.53
2018-08-20T18:52:32.776Z,4.53
2018-08-20T18:55:07.217Z,6.30
2018-08-20T18:57:41.535Z,5.50
2018-08-20T19:00:16.352Z,5.67
2018-08-20T19:02:54.356Z,6.50
2018-08-20T19:05:33.047Z,4.73
2018-08-20T19:08:11.696Z,4.90
2018-08-20T19:10:47.973Z,4.97
2018-08-20T19:13:22.397Z,5.70
2018-08-20T19:15:57.107Z,6.13
2018-08-20T19:18:36.088Z,5.43
2018-08-20T19:21:15.730Z,5.23
2018-08-20T19:23:50.597Z,7.50
2018-08-20T19:26:25.434Z,5.67
2018-08-20T19:29:28.325Z,6.03
2018-08-20T19:32:02.837Z,6.70
2018-08-20T19:34:37.876Z,6.20
2018-08-20T19:37:12.938Z,7.50
2018-08-20T19:39:47.869Z,7.50
2018-08-20T19:42:28.060Z,8.00
2018-08-20T19:45:03.719Z,7.83
2018-08-20T19:47:37.996Z,6.63
2018-08-20T19:50:13.507Z,8.27
2018-08-20T19:52:48.101Z,8.47
2018-08-20T19:55:22.440Z,8.67
2018-08-20T19:57:57.178Z,7.20
2018-08-20T20:00:32.114Z,8.27
2018-08-20T20:03:06.546Z,6.43
2018-08-20T20:05:41.063Z,7.97
2018-08-20T20:08:16.037Z,7.03
2018-08-20T20:10:50.515Z,7.97
2018-08-20T20:13:24.949Z,9.37
2018-08-20T20:16:01.204Z,8.70
2018-08-20T20:18:35.908Z,7.67
2018-08-20T20:21:10.716Z,6.80
2018-08-20T20:23:45.151Z,7.00
2018-08-20T20:26:19.870Z,6.67
2018-08-20T20:28:54.568Z,7.27
2018-08-20T20:31:28.993Z,7.13
2018-08-20T20:34:03.397Z,7.53
2018-08-20T20:36:38.172Z,8.10
2018-08-20T20:39:13.229Z,7.73
2018-08-20T20:41:47.644Z,8.50
2018-08-20T20:44:22.083Z,6.50
2018-08-20T20:46:56.986Z,7.23
2018-08-20T20:49:31.751Z,8.67
2018-08-20T20:52:06.990Z,8.47
2018-08-20T20:54:41.344Z,7.63
2018-08-20T20:57:16.354Z,7.87
2018-08-20T20:59:50.708Z,8.00
2018-08-20T21:02:25.327Z,7.60
2018-08-20T21:05:04.965Z,7.40
2018-08-20T21:07:39.861Z,8.97
2018-08-20T21:10:14.449Z,7.50
2018-08-20T21:12:49.472Z,8.90
2018-08-20T21:15:24.243Z,7.33
2018-08-20T21:17:58.696Z,10.43
2018-08-20T21:20:33.416Z,7.97
2018-08-20T21:23:08.353Z,7.60
2018-08-20T21:25:43.127Z,7.67
2018-08-20T21:28:17.604Z,8.43
2018-08-20T21:30:52.157Z,8.00
2018-08-20T21:33:27.168Z,7.23
2018-08-20T21:36:02.202Z,6.97
2018-08-20T21:38:36.716Z,7.63
2018-08-20T21:41:11.169Z,7.03
2018-08-20T21:43:47.023Z,6.83
2018-08-20T21:46:21.794Z,6.47
2018-08-20T21:48:56.723Z,6.53
2018-08-20T21:51:36.481Z,7.07
2018-08-20T21:54:10.986Z,7.70
2018-08-20T21:56:52.185Z,6.33
2018-08-20T21:59:26.848Z,6.27
2018-08-20T22:02:01.432Z,6.90
2018-08-20T22:04:35.964Z,8.17
2018-08-20T22:07:10.504Z,7.13
2018-08-20T22:09:44.848Z,6.30
2018-08-20T22:12:19.524Z,7.47
2018-08-20T22:14:54.360Z,6.60
2018-08-20T22:17:30.668Z,6.67
2018-08-20T22:20:07.020Z,9.20
2018-08-20T22:22:41.690Z,6.77
2018-08-20T22:25:16.984Z,8.63
2018-08-20T22:27:55.830Z,7.63
2018-08-20T22:30:30.836Z,6.80
2018-08-20T22:33:05.693Z,6.93
2018-08-20T22:35:40.031Z,6.97
2018-08-20T22:38:15.141Z,7.47
2018-08-20T22:40:49.775Z,8.33
2018-08-20T22:43:24.455Z,6.77
2018-08-20T22:45:59.057Z,7.40
2018-08-20T22:48:34.738Z,7.20
2018-08-20T22:51:14.609Z,6.77
2018-08-20T22:53:51.541Z,7.13
2018-08-20T22:56:31.574Z,9.27
2018-08-20T22:59:07.284Z,7.80
2018-08-20T23:01:41.571Z,8.57
2018-08-20T23:04:16.486Z,9.33
2018-08-20T23:06:50.821Z,9.07
2018-08-20T23:09:28.988Z,7.90
2018-08-20T23:12:03.573Z,11.20
2018-08-20T23:14:38.128Z,8.53
2018-08-20T23:17:12.894Z,7.90
2018-08-20T23:19:48.776Z,11.03
2018-08-20T23:22:23.444Z,7.83
2018-08-20T23:24:58.744Z,7.90
2018-08-20T23:27:39.073Z,8.40
2018-08-20T23:30:14.851Z,7.67
2018-08-20T23:32:49.976Z,8.40
2018-08-20T23:35:24.461Z,9.10
2018-08-20T23:37:59.037Z,8.70
2018-08-20T23:40:33.954Z,8.83
2018-08-20T23:43:08.376Z,9.60
2018-08-20T23:45:43.544Z,8.47
2018-08-20T23:48:18.056Z,7.77
2018-08-20T23:50:57.456Z,7.93
2018-08-20T23:53:31.749Z,7.97
2018-08-20T23:56:06.176Z,7.60
2018-08-20T23:58:40.840Z,7.90
